createdAt,value
2018-12-29T00:01:27.359Z,-0.72
2018-12-29T00:03:56.108Z,-0.74
2018-12-29T00:06:24.794Z,-0.74
2018-12-29T00:08:53.988Z,-0.65
2018-12-29T00:11:23.033Z,-0.73
2018-12-29T00:13:51.416Z,-0.76
2018-12-29T00:16:19.811Z,-0.76
2018-12-29T00:18:48.201Z,-0.71
2018-12-29T00:21:16.602Z,-0.63
2018-12-29T00:23:44.962Z,-0.56
2018-12-29T00:26:13.366Z,-0.56
2018-12-29T00:28:41.739Z,-0.63
2018-12-29T00:31:10.142Z,-0.76
2018-12-29T00:33:38.584Z,-0.71
2018-12-29T00:36:07.361Z,-0.77
2018-12-29T00:38:35.805Z,-0.77
2018-12-29T00:41:04.344Z,-0.67
2018-12-29T00:43:32.776Z,-0.74
2018-12-29T00:46:01.173Z,-0.62
2018-12-29T00:48:29.614Z,-0.76
2018-12-29T00:50:58.009Z,-0.71
2018-12-29T00:53:26.364Z,-0.63
2018-12-29T00:55:54.775Z,-0.68
2018-12-29T00:58:23.133Z,-0.67
2018-12-29T01:00:51.538Z,-0.60
2018-12-29T01:03:19.916Z,-0.62
2018-12-29T01:05:48.325Z,-0.78
2018-12-29T01:08:16.707Z,-0.78
2018-12-29T01:10:45.135Z,-0.79
2018-12-29T01:13:13.621Z,-0.83
2018-12-29T01:15:41.999Z,-0.69
2018-12-29T01:18:10.410Z,-0.66
2018-12-29T01:20:38.841Z,-0.64
2018-12-29T01:23:07.251Z,-0.62
2018-12-29T01:25:35.766Z,-0.73
2018-12-29T01:28:04.182Z,-0.79
2018-12-29T01:30:32.523Z,-0.67
2018-12-29T01:33:00.930Z,-0.64
2018-12-29T01:35:29.301Z,-0.64
2018-12-29T01:37:57.698Z,-0.61
2018-12-29T01:40:26.131Z,-0.63
2018-12-29T01:42:54.610Z,-0.66
2018-12-29T01:45:23.033Z,-0.71
2018-12-29T01:47:51.428Z,-0.68
2018-12-29T01:50:19.807Z,-0.81
2018-12-29T01:52:48.288Z,-0.85
2018-12-29T01:55:16.656Z,-0.86
2018-12-29T01:57:45.071Z,-0.76
2018-12-29T02:00:13.506Z,-0.78
2018-12-29T02:02:42.001Z,-0.78
2018-12-29T02:05:12.739Z,-0.75
2018-12-29T02:07:41.141Z,-0.75
2018-12-29T02:10:09.592Z,-0.78
2018-12-29T02:12:38.028Z,-0.75
2018-12-29T02:15:06.454Z,-0.80
2018-12-29T02:17:34.849Z,-0.77
2018-12-29T02:20:03.976Z,-0.69
2018-12-29T02:22:32.363Z,-0.79
2018-12-29T02:25:00.729Z,-0.76
2018-12-29T02:27:29.095Z,-0.80
2018-12-29T02:29:57.491Z,-0.78
2018-12-29T02:32:25.853Z,-0.72
2018-12-29T02:34:54.245Z,-0.75
2018-12-29T02:37:22.617Z,-0.73
2018-12-29T02:39:51.018Z,-0.76
2018-12-29T02:42:19.461Z,-0.64
2018-12-29T02:44:47.889Z,-0.63
2018-12-29T02:47:16.225Z,-0.65
2018-12-29T02:49:44.623Z,-0.87
2018-12-29T02:52:12.999Z,-0.87
2018-12-29T02:54:41.531Z,-0.90
2018-12-29T02:57:09.901Z,-0.86
2018-12-29T02:59:38.381Z,-0.95
2018-12-29T03:02:06.754Z,-0.95
2018-12-29T03:04:35.164Z,-0.94
2018-12-29T03:07:03.542Z,-0.94
2018-12-29T03:09:31.933Z,-0.89
2018-12-29T03:12:00.545Z,-0.95
2018-12-29T03:14:29.021Z,-0.95
2018-12-29T03:16:57.500Z,-0.93
2018-12-29T03:19:25.976Z,-0.92
2018-12-29T03:21:54.406Z,-0.89
2018-12-29T03:24:22.838Z,-0.96
2018-12-29T03:26:51.226Z,-0.96
2018-12-29T03:29:19.715Z,-0.99
2018-12-29T03:31:48.153Z,-1.03
2018-12-29T03:34:16.549Z,-1.01
2018-12-29T03:36:44.911Z,-0.99
2018-12-29T03:39:13.402Z,-1.06
2018-12-29T03:41:41.748Z,-0.96
2018-12-29T03:44:10.127Z,-0.96
2018-12-29T03:46:38.533Z,-0.96
2018-12-29T03:49:06.900Z,-0.94
2018-12-29T03:51:35.297Z,-0.99
2018-12-29T03:54:03.671Z,-0.95
2018-12-29T03:56:32.156Z,-0.99
2018-12-29T03:59:00.582Z,-0.99
2018-12-29T04:01:28.985Z,-0.87
2018-12-29T04:03:57.368Z,-0.88
2018-12-29T04:06:25.836Z,-1.05
2018-12-29T04:09:29.308Z,-0.96
2018-12-29T04:11:57.709Z,-0.96
2018-12-29T04:14:26.091Z,-0.96
2018-12-29T04:16:54.482Z,-0.97
2018-12-29T04:19:22.856Z,-0.93
2018-12-29T04:21:51.264Z,-1.01
2018-12-29T04:24:19.621Z,-1.00
2018-12-29T04:26:48.020Z,-0.88
2018-12-29T04:29:16.376Z,-0.88
2018-12-29T04:31:44.851Z,-0.95
2018-12-29T04:34:13.308Z,-0.89
2018-12-29T04:36:41.712Z,-0.77
2018-12-29T04:39:10.183Z,-0.73
2018-12-29T04:41:38.647Z,-0.75
2018-12-29T04:44:07.030Z,-0.75
2018-12-29T04:46:35.425Z,-0.73
2018-12-29T04:49:03.782Z,-0.67
2018-12-29T04:51:32.195Z,-0.79
2018-12-29T04:54:00.554Z,-0.78
2018-12-29T04:56:29.031Z,-0.80
2018-12-29T04:58:57.476Z,-0.79
2018-12-29T05:01:25.985Z,-0.69
2018-12-29T05:03:54.309Z,-0.69
2018-12-29T05:06:23.496Z,-0.58
2018-12-29T05:08:51.916Z,-0.68
2018-12-29T05:11:20.245Z,-0.57
2018-12-29T05:13:48.651Z,-0.59
2018-12-29T05:16:17.089Z,-0.62
2018-12-29T05:18:45.483Z,-0.52
2018-12-29T05:21:13.851Z,-0.52
2018-12-29T05:23:42.253Z,-0.50
2018-12-29T05:26:10.618Z,-0.52
2018-12-29T05:28:39.011Z,-0.63
2018-12-29T05:31:07.447Z,-0.56
2018-12-29T05:33:35.851Z,-0.45
2018-12-29T05:36:04.216Z,-0.57
2018-12-29T05:38:32.624Z,-0.68
2018-12-29T05:41:01.053Z,-0.63
2018-12-29T05:43:29.444Z,-0.67
2018-12-29T05:45:57.817Z,-0.62
2018-12-29T05:48:26.233Z,-0.62
2018-12-29T05:50:54.681Z,-0.61
2018-12-29T05:53:23.076Z,-0.61
2018-12-29T05:55:51.530Z,-0.69
2018-12-29T05:58:19.915Z,-0.62
2018-12-29T06:00:48.342Z,-0.62
2018-12-29T06:03:16.753Z,-0.61
2018-12-29T06:05:45.171Z,-0.65
2018-12-29T06:08:13.650Z,-0.62
2018-12-29T06:10:42.016Z,-0.58
2018-12-29T06:13:10.414Z,-0.69
2018-12-29T06:15:38.868Z,-0.62
2018-12-29T06:18:07.237Z,-0.53
2018-12-29T06:20:35.777Z,-0.47
2018-12-29T06:23:04.278Z,-0.44
2018-12-29T06:25:32.750Z,-0.46
2018-12-29T06:28:01.112Z,-0.49
2018-12-29T06:30:29.595Z,-0.43
2018-12-29T06:32:57.954Z,-0.28
2018-12-29T06:35:26.351Z,-0.35
2018-12-29T06:37:54.725Z,-0.41
2018-12-29T06:40:23.197Z,-0.42
2018-12-29T06:42:51.622Z,-0.42
2018-12-29T06:45:20.027Z,-0.43
2018-12-29T06:47:48.402Z,-0.42
2018-12-29T06:50:16.803Z,-0.40
2018-12-29T06:52:45.205Z,-0.37
2018-12-29T06:55:13.655Z,-0.34
2018-12-29T06:57:42.023Z,-0.31
2018-12-29T07:00:10.498Z,-0.26
2018-12-29T07:02:38.863Z,-0.28
2018-12-29T07:05:07.385Z,-0.29
2018-12-29T07:07:35.814Z,-0.20
2018-12-29T07:10:04.339Z,-0.17
2018-12-29T07:12:32.734Z,-0.26
2018-12-29T07:15:01.089Z,-0.24
2018-12-29T07:17:29.492Z,-0.25
2018-12-29T07:19:57.850Z,-0.29
2018-12-29T07:22:26.333Z,-0.17
2018-12-29T07:24:54.696Z,-0.19
2018-12-29T07:27:23.174Z,-0.22
2018-12-29T07:29:51.535Z,-0.31
2018-12-29T07:32:19.927Z,-0.23
2018-12-29T07:34:48.295Z,-0.16
2018-12-29T07:37:16.700Z,-0.15
2018-12-29T07:39:45.130Z,-0.16
2018-12-29T07:42:13.535Z,-0.10
2018-12-29T07:44:41.910Z,-0.14
2018-12-29T07:47:10.314Z,-0.20
2018-12-29T07:49:38.745Z,-0.10
2018-12-29T07:52:07.169Z,-0.06
2018-12-29T07:54:35.603Z,-0.16
2018-12-29T07:57:04.079Z,-0.16
2018-12-29T07:59:32.513Z,-0.09
2018-12-29T08:02:00.933Z,-0.10
2018-12-29T08:04:29.362Z,-0.18
2018-12-29T08:06:57.817Z,-0.14
2018-12-29T08:09:26.193Z,-0.09
2018-12-29T08:11:54.578Z,-0.06
2018-12-29T08:14:22.965Z,-0.16
2018-12-29T08:16:56.852Z,-0.09
2018-12-29T08:19:21.532Z,-0.14
2018-12-29T08:21:49.948Z,-0.11
2018-12-29T08:24:18.313Z,-0.12
2018-12-29T08:26:46.713Z,-0.05
2018-12-29T08:29:15.069Z,-0.06
2018-12-29T08:31:43.432Z,0.07
2018-12-29T08:34:11.906Z,0.05
2018-12-29T08:36:40.263Z,0.13
2018-12-29T08:39:08.739Z,0.13
2018-12-29T08:41:37.185Z,0.09
2018-12-29T08:44:05.576Z,0.08
2018-12-29T08:46:33.934Z,0.17
2018-12-29T08:49:02.392Z,0.23
2018-12-29T08:51:30.753Z,0.10
2018-12-29T08:53:59.147Z,0.23
2018-12-29T08:56:27.669Z,0.30
2018-12-29T08:58:56.132Z,0.23
2018-12-29T09:01:24.449Z,0.36
2018-12-29T09:03:52.849Z,0.43
2018-12-29T09:06:21.217Z,0.27
2018-12-29T09:08:49.614Z,0.32
2018-12-29T09:11:18.052Z,0.27
2018-12-29T09:13:46.448Z,0.25
2018-12-29T09:16:14.813Z,0.19
2018-12-29T09:18:49.583Z,0.26
2018-12-29T09:21:13.299Z,0.39
2018-12-29T09:23:41.724Z,0.40
2018-12-29T09:26:10.109Z,0.41
2018-12-29T09:28:38.554Z,0.40
2018-12-29T09:31:06.909Z,0.40
2018-12-29T09:33:35.304Z,0.44
2018-12-29T09:36:03.659Z,0.38
2018-12-29T09:38:32.071Z,0.41
2018-12-29T09:41:00.433Z,0.44
2018-12-29T09:43:28.827Z,0.48
2018-12-29T09:45:57.251Z,0.51
2018-12-29T09:48:25.733Z,0.50
2018-12-29T09:50:54.109Z,0.44
2018-12-29T09:53:22.555Z,0.51
2018-12-29T09:55:51.089Z,0.55
2018-12-29T09:58:19.506Z,0.58
2018-12-29T10:00:47.887Z,0.64
2018-12-29T10:03:16.253Z,0.59
2018-12-29T10:05:44.642Z,0.52
2018-12-29T10:08:13.005Z,0.48
2018-12-29T10:10:41.415Z,0.56
2018-12-29T10:13:09.829Z,0.49
2018-12-29T10:15:38.432Z,0.63
2018-12-29T10:18:07.539Z,0.52
2018-12-29T10:20:36.077Z,0.50
2018-12-29T10:23:04.548Z,0.54
2018-12-29T10:25:33.587Z,0.60
2018-12-29T10:28:01.963Z,0.74
2018-12-29T10:30:30.924Z,0.51
2018-12-29T10:32:59.372Z,0.54
2018-12-29T10:35:27.846Z,0.49
2018-12-29T10:37:56.207Z,0.63
2018-12-29T10:40:24.629Z,0.55
2018-12-29T10:42:52.991Z,0.64
2018-12-29T10:45:21.397Z,0.72
2018-12-29T10:47:49.742Z,0.65
2018-12-29T10:50:18.217Z,0.69
2018-12-29T10:52:48.648Z,0.73
2018-12-29T10:55:17.578Z,0.83
2018-12-29T10:57:46.047Z,0.85
2018-12-29T11:00:14.446Z,0.82
2018-12-29T11:02:42.976Z,0.79
2018-12-29T11:05:11.334Z,0.86
2018-12-29T11:07:39.809Z,0.96
2018-12-29T11:10:08.170Z,0.97
2018-12-29T11:12:36.567Z,0.97
2018-12-29T11:15:05.472Z,1.00
2018-12-29T11:17:33.940Z,0.94
2018-12-29T11:20:02.300Z,0.80
2018-12-29T11:22:30.767Z,0.83
2018-12-29T11:24:59.132Z,0.87
2018-12-29T11:27:27.636Z,0.94
2018-12-29T11:29:55.996Z,0.94
2018-12-29T11:32:24.445Z,1.02
2018-12-29T11:34:52.888Z,1.04
2018-12-29T11:37:21.265Z,1.03
2018-12-29T11:39:49.625Z,1.01
2018-12-29T11:42:18.084Z,0.88
2018-12-29T11:44:48.066Z,0.99
2018-12-29T11:47:16.543Z,1.07
2018-12-29T11:49:44.915Z,1.04
2018-12-29T11:52:13.311Z,1.15
2018-12-29T11:54:41.687Z,1.20
2018-12-29T11:57:10.622Z,1.25
2018-12-29T11:59:39.054Z,1.15
2018-12-29T12:02:07.525Z,1.26
2018-12-29T12:04:35.884Z,1.20
2018-12-29T12:07:04.414Z,1.19
2018-12-29T12:09:32.784Z,1.13
2018-12-29T12:12:01.175Z,1.14
2018-12-29T12:14:29.537Z,1.23
2018-12-29T12:16:58.108Z,1.28
2018-12-29T12:19:26.474Z,1.25
2018-12-29T12:21:54.901Z,1.19
2018-12-29T12:24:23.251Z,1.25
2018-12-29T12:26:51.686Z,1.27
2018-12-29T12:29:21.277Z,1.22
2018-12-29T12:31:49.719Z,1.01
2018-12-29T12:34:18.258Z,1.01
2018-12-29T12:36:46.697Z,1.04
2018-12-29T12:39:15.156Z,1.00
2018-12-29T12:41:43.528Z,1.06
2018-12-29T12:44:11.928Z,1.13
2018-12-29T12:46:40.668Z,1.14
2018-12-29T12:49:09.567Z,1.13
2018-12-29T12:51:39.986Z,1.07
2018-12-29T12:54:08.134Z,1.13
2018-12-29T12:56:36.804Z,0.90
2018-12-29T12:59:05.474Z,0.98
2018-12-29T13:01:33.836Z,0.93
2018-12-29T13:04:02.368Z,0.96
2018-12-29T13:06:30.776Z,1.03
2018-12-29T13:08:59.136Z,1.00
2018-12-29T13:11:27.886Z,1.02
2018-12-29T13:13:56.279Z,1.18
2018-12-29T13:16:24.644Z,1.05
2018-12-29T13:18:53.063Z,1.05
2018-12-29T13:21:21.408Z,1.04
2018-12-29T13:23:49.987Z,0.94
2018-12-29T13:26:18.342Z,0.96
2018-12-29T13:28:46.729Z,1.08
2018-12-29T13:31:15.444Z,1.07
2018-12-29T13:33:43.809Z,1.06
2018-12-29T13:36:13.785Z,1.12
2018-12-29T13:38:42.144Z,1.16
2018-12-29T13:41:10.542Z,1.23
2018-12-29T13:43:38.924Z,1.32
2018-12-29T13:46:07.322Z,1.27
2018-12-29T13:48:36.062Z,1.13
2018-12-29T13:51:04.517Z,1.11
2018-12-29T13:53:32.962Z,1.12
2018-12-29T13:56:01.353Z,1.08
2018-12-29T13:58:33.953Z,1.12
2018-12-29T14:01:02.352Z,1.05
2018-12-29T14:03:30.711Z,0.93
2018-12-29T14:05:59.111Z,0.94
2018-12-29T14:08:27.466Z,0.94
2018-12-29T14:10:56.095Z,0.93
2018-12-29T14:13:24.458Z,0.92
2018-12-29T14:15:53.027Z,0.89
2018-12-29T14:18:28.002Z,0.84
2018-12-29T14:20:51.684Z,0.86
2018-12-29T14:23:20.249Z,0.87
2018-12-29T14:25:48.645Z,0.89
2018-12-29T14:28:17.017Z,0.94
2018-12-29T14:30:45.588Z,0.95
2018-12-29T14:33:14.267Z,0.98
2018-12-29T14:35:42.662Z,1.01
2018-12-29T14:38:11.360Z,1.02
2018-12-29T14:40:41.191Z,1.06
2018-12-29T14:43:09.851Z,1.02
2018-12-29T14:45:38.211Z,1.08
2018-12-29T14:48:07.309Z,1.09
2018-12-29T14:50:35.754Z,1.09
2018-12-29T14:53:04.215Z,1.17
2018-12-29T14:55:32.642Z,1.28
2018-12-29T14:58:01.110Z,1.21
2018-12-29T15:00:29.853Z,1.18
2018-12-29T15:02:58.247Z,1.24
2018-12-29T15:05:26.979Z,1.24
2018-12-29T15:07:55.453Z,1.20
2018-12-29T15:10:23.826Z,1.19
2018-12-29T15:12:52.219Z,1.21
2018-12-29T15:15:20.652Z,1.23
2018-12-29T15:17:49.125Z,1.27
2018-12-29T15:20:17.968Z,1.21
2018-12-29T15:22:46.861Z,1.14
2018-12-29T15:25:15.454Z,1.09
2018-12-29T15:27:44.444Z,1.04
2018-12-29T15:30:12.874Z,1.01
2018-12-29T15:32:41.283Z,1.15
2018-12-29T15:35:10.115Z,1.05
2018-12-29T15:37:38.504Z,1.14
2018-12-29T15:40:08.198Z,1.20
2018-12-29T15:42:36.647Z,1.19
2018-12-29T15:45:06.045Z,1.26
2018-12-29T15:47:34.441Z,1.22
2018-12-29T15:50:02.807Z,1.21
2018-12-29T15:52:31.199Z,1.28
2018-12-29T15:54:59.641Z,1.22
2018-12-29T15:57:29.503Z,1.19
2018-12-29T15:59:58.130Z,1.20
2018-12-29T16:02:26.661Z,1.15
2018-12-29T16:04:55.980Z,1.16
2018-12-29T16:07:26.168Z,1.09
2018-12-29T16:09:54.558Z,1.13
2018-12-29T16:12:27.568Z,1.14
2018-12-29T16:14:57.399Z,1.15
2018-12-29T16:17:25.757Z,1.15
2018-12-29T16:19:54.527Z,1.17
2018-12-29T16:22:23.268Z,1.20
2018-12-29T16:24:51.920Z,1.19
2018-12-29T16:27:20.561Z,1.23
2018-12-29T16:29:49.364Z,1.27
2018-12-29T16:32:17.723Z,1.36
2018-12-29T16:34:46.124Z,1.41
2018-12-29T16:37:14.623Z,1.38
2018-12-29T16:39:43.508Z,1.33
2018-12-29T16:42:11.889Z,1.35
2018-12-29T16:44:40.301Z,1.35
2018-12-29T16:47:08.737Z,1.30
2018-12-29T16:49:38.556Z,1.29
2018-12-29T16:52:07.070Z,1.29
2018-12-29T16:54:37.412Z,1.30
2018-12-29T16:57:05.719Z,1.39
2018-12-29T16:59:34.880Z,1.34
2018-12-29T17:02:03.207Z,1.32
2018-12-29T17:04:31.623Z,1.36
2018-12-29T17:06:59.976Z,1.36
2018-12-29T17:09:28.738Z,1.31
2018-12-29T17:11:57.259Z,1.38
2018-12-29T17:14:25.675Z,1.43
2018-12-29T17:16:54.031Z,1.44
2018-12-29T17:19:23.023Z,1.43
2018-12-29T17:21:52.295Z,1.54
2018-12-29T17:24:20.737Z,1.54
2018-12-29T17:26:49.128Z,1.54
2018-12-29T17:29:17.566Z,1.58
2018-12-29T17:31:45.963Z,1.53
2018-12-29T17:34:14.396Z,1.61
2018-12-29T17:36:42.790Z,1.68
2018-12-29T17:39:11.151Z,1.62
2018-12-29T17:41:41.207Z,1.73
2018-12-29T17:44:09.741Z,1.71
2018-12-29T17:46:38.867Z,1.69
2018-12-29T17:49:07.609Z,1.64
2018-12-29T17:51:36.103Z,1.59
2018-12-29T17:54:04.459Z,1.62
2018-12-29T17:56:33.228Z,1.62
2018-12-29T17:59:01.690Z,1.68
2018-12-29T18:01:30.236Z,1.72
2018-12-29T18:03:58.600Z,1.74
2018-12-29T18:06:27.009Z,1.74
2018-12-29T18:08:55.716Z,1.70
2018-12-29T18:11:24.219Z,1.65
2018-12-29T18:13:52.596Z,1.68
2018-12-29T18:16:22.201Z,1.67
2018-12-29T18:18:50.638Z,1.61
2018-12-29T18:21:19.030Z,1.59
2018-12-29T18:23:47.385Z,1.59
2018-12-29T18:26:16.416Z,1.59
2018-12-29T18:28:44.964Z,1.56
2018-12-29T18:31:13.699Z,1.57
2018-12-29T18:33:42.132Z,1.54
2018-12-29T18:36:10.685Z,1.56
2018-12-29T18:38:39.622Z,1.50
2018-12-29T18:41:08.153Z,1.56
2018-12-29T18:43:36.815Z,1.52
2018-12-29T18:46:07.597Z,1.53
2018-12-29T18:48:36.640Z,1.53
2018-12-29T18:51:08.964Z,1.54
2018-12-29T18:53:37.769Z,1.55
2018-12-29T18:56:08.049Z,1.61
2018-12-29T18:58:37.065Z,1.67
2018-12-29T19:01:06.015Z,1.78
2018-12-29T19:03:37.082Z,1.71
2018-12-29T19:06:05.850Z,1.84
2018-12-29T19:08:34.702Z,1.80
2018-12-29T19:11:03.866Z,1.80
2018-12-29T19:13:33.965Z,1.84
2018-12-29T19:16:03.616Z,1.84
2018-12-29T19:18:32.607Z,1.94
2018-12-29T19:21:01.136Z,1.84
2018-12-29T19:23:31.681Z,1.84
2018-12-29T19:26:00.860Z,1.83
2018-12-29T19:28:31.274Z,1.85
2018-12-29T19:31:00.000Z,1.81
2018-12-29T19:33:29.244Z,1.85
2018-12-29T19:35:59.896Z,1.82
2018-12-29T19:38:28.913Z,1.87
2018-12-29T19:40:57.375Z,1.88
2018-12-29T19:43:26.647Z,1.84
2018-12-29T19:45:56.670Z,1.91
2018-12-29T19:48:27.231Z,1.91
2018-12-29T19:50:56.189Z,1.92
2018-12-29T19:53:25.338Z,1.93
2018-12-29T19:55:54.164Z,1.91
2018-12-29T19:58:22.676Z,1.91
2018-12-29T20:00:51.125Z,1.96
2018-12-29T20:03:22.709Z,1.92
2018-12-29T20:05:54.415Z,2.05
2018-12-29T20:08:25.305Z,2.08
2018-12-29T20:10:54.765Z,2.14
2018-12-29T20:13:23.334Z,2.13
2018-12-29T20:15:51.782Z,2.14
2018-12-29T20:18:20.226Z,2.21
2018-12-29T20:20:48.693Z,2.07
2018-12-29T20:23:17.306Z,2.02
2018-12-29T20:25:45.837Z,2.04
2018-12-29T20:28:14.722Z,2.04
2018-12-29T20:30:43.192Z,2.08
2018-12-29T20:33:11.566Z,2.11
2018-12-29T20:35:40.413Z,2.13
2018-12-29T20:38:08.765Z,2.14
2018-12-29T20:40:37.171Z,2.21
2018-12-29T20:43:05.605Z,2.28
2018-12-29T20:45:33.997Z,2.27
2018-12-29T20:48:02.362Z,2.26
2018-12-29T20:50:30.836Z,2.30
2018-12-29T20:52:59.446Z,2.30
2018-12-29T20:55:27.964Z,2.32
2018-12-29T20:57:56.335Z,2.38
2018-12-29T21:00:25.158Z,2.35
2018-12-29T21:02:54.167Z,2.87
2018-12-29T21:05:22.823Z,2.41
2018-12-29T21:07:52.538Z,2.38
2018-12-29T21:10:22.915Z,2.93
2018-12-29T21:12:51.758Z,2.57
2018-12-29T21:15:20.450Z,2.65
2018-12-29T21:17:49.187Z,2.49
2018-12-29T21:20:17.782Z,2.46
2018-12-29T21:22:46.851Z,2.27
2018-12-29T21:25:17.669Z,2.44
2018-12-29T21:27:46.792Z,2.74
2018-12-29T21:30:15.910Z,2.55
2018-12-29T21:32:47.952Z,2.56
2018-12-29T21:35:16.892Z,2.62
2018-12-29T21:38:01.591Z,2.53
2018-12-29T21:40:29.967Z,2.48
2018-12-29T21:42:58.448Z,2.51
2018-12-29T21:45:27.165Z,2.49
2018-12-29T21:47:55.549Z,2.51
2018-12-29T21:50:25.919Z,2.57
2018-12-29T21:52:55.208Z,2.47
2018-12-29T21:55:23.988Z,2.54
2018-12-29T21:57:52.455Z,2.54
2018-12-29T22:00:20.829Z,2.50
2018-12-29T22:02:49.302Z,2.50
2018-12-29T22:05:17.655Z,2.45
2018-12-29T22:07:46.086Z,2.62
2018-12-29T22:10:14.523Z,2.47
2018-12-29T22:12:42.928Z,2.40
2018-12-29T22:15:11.363Z,2.43
2018-12-29T22:17:39.749Z,2.44
2018-12-29T22:20:08.451Z,2.43
2018-12-29T22:22:36.889Z,2.45
2018-12-29T22:25:05.621Z,2.40
2018-12-29T22:27:34.136Z,2.91
2018-12-29T22:30:02.611Z,2.88
2018-12-29T22:32:30.971Z,2.94
2018-12-29T22:34:59.448Z,3.04
2018-12-29T22:37:27.905Z,2.78
2018-12-29T22:39:56.328Z,2.63
2018-12-29T22:42:24.769Z,2.55
2018-12-29T22:44:53.228Z,2.49
2018-12-29T22:47:21.908Z,2.49
2018-12-29T22:49:50.374Z,2.48
2018-12-29T22:52:18.738Z,2.52
2018-12-29T22:54:47.203Z,2.51
2018-12-29T22:57:15.566Z,2.52
2018-12-29T22:59:44.077Z,2.53
2018-12-29T23:02:12.595Z,2.53
2018-12-29T23:04:41.162Z,2.52
2018-12-29T23:07:09.820Z,2.51
2018-12-29T23:09:38.298Z,2.54
2018-12-29T23:12:06.971Z,2.54
2018-12-29T23:14:35.478Z,2.53
2018-12-29T23:17:04.494Z,2.56
2018-12-29T23:19:34.497Z,2.53
2018-12-29T23:22:02.933Z,2.52
2018-12-29T23:24:31.301Z,2.54
2018-12-29T23:26:59.714Z,2.52
2018-12-29T23:29:28.153Z,2.50
2018-12-29T23:31:56.555Z,2.54
2018-12-29T23:34:25.462Z,2.50
2018-12-29T23:36:53.955Z,2.50
2018-12-29T23:39:22.412Z,2.52
2018-12-29T23:41:51.372Z,2.53
2018-12-29T23:44:19.751Z,2.50
2018-12-29T23:46:48.321Z,2.53
2018-12-29T23:49:16.681Z,2.52
2018-12-29T23:51:45.350Z,2.49
2018-12-29T23:54:13.789Z,2.49
2018-12-29T23:56:42.558Z,2.52
2018-12-29T23:59:11.419Z,2.52
